Sapucai-Mirim, Brazil
Current Conditions -  °F | °C
As of 10:00 AM on Sunday 21 Dec 2014 (Local Time) from SBSJ Reporting Station
Scattered Clouds Scattered Clouds  
Wind Chill: 86°   Ceiling: Unl
Heat Index: 87°   Visibility: 6mi
Dew Point: 64°   Wind: 9mph
Humidity: 48%   Direction: 10°N
Pressure: 29.97"   Gusts: NA
Location:  22.75°S, 45.74°W
Report Text: SBSJ 211200Z 01008KT 9999 FEW040 SCT100 30/18 Q1015
Loading
Personal Weather Stations






























Interactive Weather Map New forecast layout! Learn more

10-Day Weather Forecast

Advertisements
Track Severe Weather on mobile